aviador You're here:

KPBG Decoded Metar

PLATTSBURGH in NY, USA
Report Time2017-11-25 04:53:00
UTC Time2017-11-25 05:37:14
Flight Rules vfr VFR
Wind170° at 08 kt
W.Decomp.*RWY 17: 7.7 kt HW 2.1 kt RCW
W.Rank170° ranks 3
Current wind is above 170° avg. (7.7)
Visibility9999 m
Phenomena:N/A
Clouds:N/A
Expected CloudBase > 3,600 ft AGL from Temp-Dew spread
CeilingNone
Temp06°C (ISA -9)
Dew Point-3°C (53% RH)
AAT0.8°C
QNH1005 hPa
Density Alt-449 ft
Elevation236 ft
Report Wrong Elevation
Raw Report
KPBG 250453Z AUTO 17008KT 10SM CLR 06/M03 A2968 RMK AO2 SLP053
T00561028 400720017=

Extra information for KPBG:More info

Metar Taf Metar & Taf Last 4 Metars F.Rules Stats Wind Profile Meteogram Temp Stats Airport Information Weather charts Add Link Nearby VenuesMetar ALERT Operation Metar Decoded Social comments

AIRNAV info for KPBG